METAR Data
IDs: Format: Raw Decoded Include TAF

Data at: 1337 UTC 14 Dec 2019

PFYU 141256Z AUTO 00000KT 10SM CLR M28/M31 A2985 RMK AO2 SLP134 T12831311 FZRANO
PFYU 141156Z AUTO 03003KT 10SM CLR M28/M31 A2985 RMK AO2 SLP133 6//// 7//// T12831311 11267 21283 50006 FZRANO
PFYU 141056Z AUTO 00000KT 10SM CLR M28/M31 A2985 RMK AO2 SLP133 T12831311 FZRANO
PFYU 140956Z AUTO 00000KT 10SM CLR M28/M31 A2984 RMK AO2 SLP129 T12831311 FZRANO
PFYU 140856Z AUTO 00000KT 9SM CLR M28/M31 A2983 RMK AO2 SLP125 6//// T12781306 411671278 53006 FZRANO
PFYU 140756Z AUTO 00000KT 10SM CLR M27/M30 A2982 RMK AO2 SLP121 T12721300 FZRANO
PFYU 140656Z AUTO 00000KT 4SM HZ CLR M27/M29 A2981 RMK AO2 SLP119 T12671294 FZRANO
PFYU 140556Z AUTO 00000KT 10SM CLR M27/M29 A2981 RMK AO2 SLP119 6//// T12671289 11244 21267 53007 FZRANO
PFYU 140456Z AUTO 00000KT 7SM CLR M27/M29 A2980 RMK AO2 SLP115 T12671289 FZRANO
PFYU 140356Z 00000KT 3SM BR CLR M27/M29 A2979 RMK AO2 SLP111 T12671289
PFYU 140256Z 00000KT 9SM CLR M26/M28 A2979 RMK AO2 SLP111 6//// T12611283 51011
PFYU 140156Z 00000KT 10SM CLR M25/M27 A2979 RMK AO2 SLP108 T12501272
PFYU 140056Z 00000KT 10SM CLR M25/M27 A2977 RMK AO2 SLP103 T12501272
PFYU 132356Z 00000KT 10SM CLR M24/M27 A2976 RMK AO2 SLP099 T12441272 11194 21244 53015
PFYU 132256Z 00000KT 10SM CLR M23/M26 A2974 RMK AO2 SLP092 T12331256
PFYU 132156Z 00000KT 10SM CLR M21/M23 A2973 RMK AO2 SLP088 T12061228
PFYU 132056Z 00000KT 10SM CLR M21/M23 A2971 RMK AO2 SLP083 T12111233 53014
PFYU 131956Z 02003KT 10SM CLR M21/M23 A2969 RMK AO2 SLP076 T12111233
PFYU 131856Z 05005KT 10SM CLR M19/M22 A2968 RMK AO2 SLP069 T11941217
PFYU 131756Z 00000KT 10SM CLR M19/M22 A2967 RMK AO2 SLP067 T11941217 11167 21194 53014
PFYU 131656Z 04004KT 10SM CLR M19/M22 A2965
PFYU 131556Z 06004KT 10SM CLR M18/M21 A2964 RMK AO2 SLP057 T11781211
PFYU 131456Z AUTO 04005KT 10SM CLR M18/M21 A2963 RMK AO2 SLP054 T11781211 52003 FZRANO
PFYU 131356Z AUTO 05005KT 10SM CLR M17/M21 A2963 RMK AO2 SLP052 T11721206 FZRANO
PFYU 131256Z AUTO 05008KT 10SM CLR M17/M20 A2962 RMK AO2 SLP050 T11671200 FZRANO
PFYU 131156Z AUTO 05010KT 10SM CLR M17/M20 A2962 RMK AO2 SLP051 T11671200 11150 21172 58005 FZRANO
PFYU 131056Z AUTO 06008KT 10SM CLR M17/M20 A2963 RMK AO2 SLP053 T11671200 FZRANO
PFYU 130956Z AUTO 05008KT 10SM CLR M17/M20 A2963 RMK AO2 SLP053 T11671200 FZRANO
PFYU 130856Z AUTO 06006KT 10SM CLR M17/M21 A2964 RMK AO2 SLP056 T11721206 411441178 56007 FZRANO
PFYU 130756Z AUTO 05007KT 10SM CLR M17/M21 A2965 RMK AO2 SLP059 T11721211 FZRANO
PFYU 130656Z AUTO 06007KT 10SM CLR M17/M21 A2965 RMK AO2 SLP061 T11671206 FZRANO
PFYU 130556Z AUTO 06007KT 10SM CLR M17/M21 A2966 RMK AO2 SLP064 T11671211 11144 21167 58004 FZRANO
PFYU 130456Z AUTO 06007KT 10SM CLR M16/M21 A2967 RMK AO2 SLP066 T11561206 FZRANO
PFYU 130356Z 06006KT 10SM CLR M16/M20 A2967 RMK AO2 SLP069 T11561200
PFYU 130256Z 06006KT 10SM CLR M15/M20 A2967 RMK AO2 SLP068 T11501200 56011
PFYU 130156Z 05007KT 10SM CLR M14/M19 A2968 RMK AO2 SLP070 T11441194